Time;durP1;ratioP1;P1;durP2;ratioP2;P2;SDS_P1;SDS_P2;PMS_P1;PMS_P2;Temp;Humidity;BMP_temperature;BMP_pressure;BME280_temperature;BME280_humidity;BME280_pressure;Samples;Min_cycle;Max_cycle;Signal;HPM_P1;HPM_P2
2023/07/02 00:00:11;;;;;;;;;;;;;;;;;;5049732;28;19970;-71
2023/07/02 00:02:36;;;;;;;;;;;;;;;;;;5047908;28;19966;-67
2023/07/02 00:05:01;;;;;;;;;;;;;;;;;;5032108;28;19916;-69
2023/07/02 00:07:26;;;;;;;;;;;;;;;;;;5032099;28;19932;-67
2023/07/02 00:09:54;;;;;;;;;;;;;;;;;;5049514;28;20363;-67
2023/07/02 00:12:22;;;;;;;;;;;;;;;;;;5032698;28;19932;-67
2023/07/02 00:14:47;;;;;;;;;;;;;;;;;;5048212;28;19916;-69
2023/07/02 00:17:15;;;;;;;;;;;;;;;;;;5045832;28;19916;-68
2023/07/02 00:19:46;;;;;;;;;;;;;;;;;;5033105;28;19967;-69
2023/07/02 00:22:15;;;;;;;;;;;;;;;;;;5034715;28;20525;-68
2023/07/02 00:24:41;;;;;;;;;;;;;;;;;;5033396;28;20015;-69
2023/07/02 00:27:06;;;;;;;;;;;;;;;;;;5047041;28;19940;-69
2023/07/02 00:29:31;;;;;;;;;;;;;;;;;;5032845;28;19920;-69
2023/07/02 00:31:59;;;;;;;;;;;;;;;;;;5044188;28;19924;-68
2023/07/02 00:34:24;;;;;;;;;;;;;;;;;;5042644;28;21852;-68
2023/07/02 00:36:50;;;;;;;;;;;;;;;;;;5062100;28;19982;-69
2023/07/02 00:39:17;;;;;;;;;;;;;;;;;;5047484;28;19916;-68
2023/07/02 00:41:46;;;;;;;;;;;;;;;;;;5058578;28;19924;-67
2023/07/02 00:44:13;;;;;;;;;;;;;;;;;;5045447;28;19921;-70
2023/07/02 00:46:41;;;;;;;;;;;;;;;;;;5037865;28;20900;-69
2023/07/02 00:49:09;;;;;;;;;;;;;;;;;;5044939;28;19917;-69
2023/07/02 00:51:37;;;;;;;;;;;;;;;;;;5045062;28;20004;-68
2023/07/02 00:54:02;;;;;;;;;;;;;;;;;;5044176;28;19921;-67
2023/07/02 00:56:28;;;;;;;;;;;;;;;;;;5054792;28;20596;-68
2023/07/02 00:58:53;;;;;;;;;;;;;;;;;;5045702;28;19935;-67
2023/07/02 01:01:21;;;;;;;;;;;;;;;;;;5029756;28;19921;-69
2023/07/02 01:03:46;;;;;;;;;;;;;;;;;;5043150;28;19923;-68
2023/07/02 01:06:12;;;;;;;;;;;;;;;;;;5047086;28;20501;-68
2023/07/02 01:08:37;;;;;;;;;;;;;;;;;;5042912;28;19912;-69
2023/07/02 01:11:02;;;;;;;;;;;;;;;;;;5044021;28;19920;-67
2023/07/02 01:13:27;;;;;;;;;;;;;;;;;;5045134;28;20745;-66
2023/07/02 01:15:53;;;;;;;;;;;;;;;;;;5058930;28;20005;-68
2023/07/02 01:18:18;;;;;;;;;;;;;;;;;;5046023;28;20007;-68
2023/07/02 01:20:44;;;;;;;;;;;;;;;;;;5042416;28;19963;-66
2023/07/02 01:23:11;;;;;;;;;;;;;;;;;;5043981;28;19920;-69
2023/07/02 01:25:36;;;;;;;;;;;;;;;;;;5042652;28;19921;-69
2023/07/02 01:28:02;;;;;;;;;;;;;;;;;;5042597;28;19916;-67
2023/07/02 01:30:27;;;;;;;;;;;;;;;;;;5043591;28;19928;-67
2023/07/02 01:32:53;;;;;;;;;;;;;;;;;;5045000;28;19921;-68
2023/07/02 01:35:21;;;;;;;;;;;;;;;;;;5046912;28;20108;-67
2023/07/02 01:37:46;;;;;;;;;;;;;;;;;;5044872;28;19928;-69
2023/07/02 01:40:12;;;;;;;;;;;;;;;;;;5043284;28;19917;-69
2023/07/02 01:42:40;;;;;;;;;;;;;;;;;;5060275;28;19940;-69
2023/07/02 01:45:05;;;;;;;;;;;;;;;;;;5028725;28;19921;-68
2023/07/02 01:47:33;;;;;;;;;;;;;;;;;;5033809;28;19919;-68
2023/07/02 01:49:58;;;;;;;;;;;;;;;;;;5057487;28;21793;-67
2023/07/02 01:52:24;;;;;;;;;;;;;;;;;;5046211;28;19974;-68
2023/07/02 01:54:52;;;;;;;;;;;;;;;;;;5047105;28;19927;-70
2023/07/02 01:57:17;;;;;;;;;;;;;;;;;;5034115;28;20291;-68
2023/07/02 01:59:42;;;;;;;;;;;;;;;;;;5051414;28;19986;-68
2023/07/02 02:02:10;;;;;;;;;;;;;;;;;;5032047;28;19917;-69
2023/07/02 02:04:38;;;;;;;;;;;;;;;;;;5045803;28;20006;-67
2023/07/02 02:07:03;;;;;;;;;;;;;;;;;;5043708;28;19916;-70
2023/07/02 02:09:30;;;;;;;;;;;;;;;;;;5057207;28;19999;-68
2023/07/02 02:11:55;;;;;;;;;;;;;;;;;;5045139;28;20042;-69
2023/07/02 02:14:21;;;;;;;;;;;;;;;;;;5059285;28;20528;-68
2023/07/02 02:16:47;;;;;;;;;;;;;;;;;;5044939;28;19939;-66
2023/07/02 02:22:28;;;;;;;;;;;;;;;;;;5043732;28;19973;-69
2023/07/02 02:24:54;;;;;;;;;;;;;;;;;;5043684;28;19924;-69
2023/07/02 02:27:19;;;;;;;;;;;;;;;;;;5041959;28;19916;-67
2023/07/02 02:29:46;;;;;;;;;;;;;;;;;;5059246;28;20443;-67
2023/07/02 02:32:12;;;;;;;;;;;;;;;;;;5039875;28;19931;-68
2023/07/02 02:34:40;;;;;;;;;;;;;;;;;;5043070;28;20435;-68
2023/07/02 02:37:05;;;;;;;;;;;;;;;;;;5045426;28;19959;-69
2023/07/02 02:39:31;;;;;;;;;;;;;;;;;;5045425;28;20026;-68
2023/07/02 02:41:56;;;;;;;;;;;;;;;;;;5046239;28;20325;-69
2023/07/02 02:44:21;;;;;;;;;;;;;;;;;;5049858;28;20337;-68
2023/07/02 02:46:46;;;;;;;;;;;;;;;;;;5048774;28;20003;-69
2023/07/02 02:49:12;;;;;;;;;;;;;;;;;;5034628;28;19931;-69
2023/07/02 02:51:43;;;;;;;;;;;;;;;;;;5045873;28;19920;-67
2023/07/02 02:54:09;;;;;;;;;;;;;;;;;;5047944;28;19922;-67
2023/07/02 02:56:34;;;;;;;;;;;;;;;;;;5044316;28;20561;-69
2023/07/02 02:59:05;;;;;;;;;;;;;;;;;;5048081;28;19921;-68
2023/07/02 03:01:30;;;;;;;;;;;;;;;;;;5048839;28;19967;-68
2023/07/02 03:03:55;;;;;;;;;;;;;;;;;;5047802;28;20019;-67
2023/07/02 03:06:21;;;;;;;;;;;;;;;;;;5046337;28;19917;-68
2023/07/02 03:08:46;;;;;;;;;;;;;;;;;;5062099;28;19921;-69
2023/07/02 03:11:14;;;;;;;;;;;;;;;;;;5045866;28;19916;-68
2023/07/02 03:13:42;;;;;;;;;;;;;;;;;;5047116;28;19943;-69
2023/07/02 03:16:08;;;;;;;;;;;;;;;;;;5045965;28;20391;-69
2023/07/02 03:18:33;;;;;;;;;;;;;;;;;;5049558;28;19920;-66
2023/07/02 03:20:59;;;;;;;;;;;;;;;;;;5044327;28;19921;-67
2023/07/02 03:23:26;;;;;;;;;;;;;;;;;;5049346;28;19925;-68
2023/07/02 03:25:52;;;;;;;;;;;;;;;;;;5046867;28;19925;-68
2023/07/02 03:28:17;;;;;;;;;;;;;;;;;;5047281;28;19921;-67
2023/07/02 03:30:42;;;;;;;;;;;;;;;;;;5046912;28;19924;-66
2023/07/02 03:33:08;;;;;;;;;;;;;;;;;;5047688;28;20462;-64
2023/07/02 03:35:33;;;;;;;;;;;;;;;;;;5048558;28;19917;-66
2023/07/02 03:41:14;;;;;;;;;;;;;;;;;;5044470;28;19924;-71
2023/07/02 03:43:40;;;;;;;;;;;;;;;;;;5048859;28;19920;-68
2023/07/02 03:46:08;;;;;;;;;;;;;;;;;;5034301;28;19923;-66
2023/07/02 03:48:33;;;;;;;;;;;;;;;;;;5046951;28;19920;-66
2023/07/02 03:50:58;;;;;;;;;;;;;;;;;;5045964;28;20134;-68
2023/07/02 03:53:24;;;;;;;;;;;;;;;;;;5047839;28;19928;-67
2023/07/02 03:55:49;;;;;;;;;;;;;;;;;;5047492;28;20052;-69
2023/07/02 03:58:14;;;;;;;;;;;;;;;;;;5032712;28;19921;-66
2023/07/02 04:00:44;;;;;;;;;;;;;;;;;;5045529;28;20380;-66
2023/07/02 04:03:11;;;;;;;;;;;;;;;;;;5046138;28;19916;-70
2023/07/02 04:05:37;;;;;;;;;;;;;;;;;;5047554;28;19928;-68
2023/07/02 04:08:05;;;;;;;;;;;;;;;;;;5061170;28;20011;-66
2023/07/02 04:10:40;;;;;;;;;;;;;;;;;;5046071;28;19927;-70
2023/07/02 04:13:05;;;;;;;;;;;;;;;;;;5045961;28;19932;-69
2023/07/02 04:15:31;;;;;;;;;;;;;;;;;;5045497;28;19920;-69
2023/07/02 04:17:57;;;;;;;;;;;;;;;;;;5046145;28;19917;-67
2023/07/02 04:20:25;;;;;;;;;;;;;;;;;;5061493;28;19928;-66
2023/07/02 04:26:10;;;;;;;;;;;;;;;;;;5046919;28;19928;-70
2023/07/02 04:28:35;;;;;;;;;;;;;;;;;;5044731;28;19931;-67
2023/07/02 04:31:00;;;;;;;;;;;;;;;;;;5061788;28;20014;-68
2023/07/02 04:33:35;;;;;;;;;;;;;;;;;;5044804;28;20170;-68
2023/07/02 04:36:04;;;;;;;;;;;;;;;;;;5046173;28;20020;-69
2023/07/02 04:38:29;;;;;;;;;;;;;;;;;;5046609;28;19917;-68
2023/07/02 04:41:04;;;;;;;;;;;;;;;;;;5049355;28;19916;-70
2023/07/02 04:43:35;;;;;;;;;;;;;;;;;;5044766;28;21085;-69
2023/07/02 04:46:07;;;;;;;;;;;;;;;;;;5047964;28;20613;-70
2023/07/02 04:48:33;;;;;;;;;;;;;;;;;;5030993;28;19921;-68
2023/07/02 04:50:58;;;;;;;;;;;;;;;;;;5032360;28;20001;-67
2023/07/02 04:53:26;;;;;;;;;;;;;;;;;;5046774;28;19932;-67
2023/07/02 04:55:51;;;;;;;;;;;;;;;;;;5045995;28;20892;-69
2023/07/02 04:58:19;;;;;;;;;;;;;;;;;;5043482;28;20000;-70
2023/07/02 05:00:45;;;;;;;;;;;;;;;;;;5031502;28;20403;-69
2023/07/02 05:03:13;;;;;;;;;;;;;;;;;;5044228;28;20014;-66
2023/07/02 05:05:38;;;;;;;;;;;;;;;;;;5048075;28;19913;-65
2023/07/02 05:08:04;;;;;;;;;;;;;;;;;;5044236;28;19930;-67
2023/07/02 05:10:39;;;;;;;;;;;;;;;;;;5043511;28;19955;-68
2023/07/02 05:13:05;;;;;;;;;;;;;;;;;;5046590;28;20467;-64
2023/07/02 05:15:30;;;;;;;;;;;;;;;;;;5058240;28;19921;-65
2023/07/02 05:17:58;;;;;;;;;;;;;;;;;;5045265;28;20040;-67
2023/07/02 05:20:23;;;;;;;;;;;;;;;;;;5042753;28;19920;-66
2023/07/02 05:22:48;;;;;;;;;;;;;;;;;;5061879;28;19927;-67
2023/07/02 05:25:14;;;;;;;;;;;;;;;;;;5040928;28;19966;-66
2023/07/02 05:27:42;;;;;;;;;;;;;;;;;;5045265;28;19923;-68
2023/07/02 05:33:04;;;;;;;;;;;;;;;;;;5042868;28;20353;-70
2023/07/02 05:35:29;;;;;;;;;;;;;;;;;;5045059;28;19956;-68
2023/07/02 05:37:57;;;;;;;;;;;;;;;;;;5031479;28;20068;-70
2023/07/02 05:40:23;;;;;;;;;;;;;;;;;;5044416;28;19966;-65
2023/07/02 05:42:48;;;;;;;;;;;;;;;;;;5042287;28;19924;-66
2023/07/02 05:45:13;;;;;;;;;;;;;;;;;;5031168;28;19921;-66
2023/07/02 05:47:41;;;;;;;;;;;;;;;;;;5042935;28;19927;-68
2023/07/02 05:53:22;;;;;;;;;;;;;;;;;;5044017;28;19935;-65
2023/07/02 05:55:48;;;;;;;;;;;;;;;;;;5042725;28;19920;-64
2023/07/02 05:58:13;;;;;;;;;;;;;;;;;;5046745;28;19925;-68
2023/07/02 06:00:41;;;;;;;;;;;;;;;;;;5030900;28;20376;-69
2023/07/02 06:03:09;;;;;;;;;;;;;;;;;;5041644;28;19942;-67
2023/07/02 06:05:34;;;;;;;;;;;;;;;;;;5060003;28;20396;-64
2023/07/02 06:08:00;;;;;;;;;;;;;;;;;;5044512;28;19920;-65
2023/07/02 06:10:27;;;;;;;;;;;;;;;;;;5030596;28;19926;-67
2023/07/02 06:12:53;;;;;;;;;;;;;;;;;;5051083;28;19924;-68
2023/07/02 06:18:03;;;;;;;;;;;;;;;;;;5049875;28;19921;-69
2023/07/02 06:20:32;;;;;;;;;;;;;;;;;;5047563;28;19984;-64
2023/07/02 06:22:57;;;;;;;;;;;;;;;;;;5048815;28;19921;-65
2023/07/02 06:25:22;;;;;;;;;;;;;;;;;;5045665;28;19943;-68
2023/07/02 06:27:48;;;;;;;;;;;;;;;;;;5049582;28;19920;-67
2023/07/02 06:30:13;;;;;;;;;;;;;;;;;;5063594;28;20846;-68
2023/07/02 06:32:40;;;;;;;;;;;;;;;;;;5062479;28;19924;-66
2023/07/02 06:35:07;;;;;;;;;;;;;;;;;;5063041;28;20780;-67
2023/07/02 06:37:42;;;;;;;;;;;;;;;;;;5050708;28;19952;-63
2023/07/02 06:40:10;;;;;;;;;;;;;;;;;;5047858;28;20031;-65
2023/07/02 06:42:38;;;;;;;;;;;;;;;;;;5045140;28;19924;-67
2023/07/02 06:45:06;;;;;;;;;;;;;;;;;;5059255;28;20093;-67
2023/07/02 06:47:32;;;;;;;;;;;;;;;;;;5045611;28;19917;-70
2023/07/02 06:49:59;;;;;;;;;;;;;;;;;;5034746;28;19923;-66
2023/07/02 06:55:41;;;;;;;;;;;;;;;;;;5047310;28;19951;-67
2023/07/02 06:58:07;;;;;;;;;;;;;;;;;;5048400;28;21176;-67
2023/07/02 07:00:35;;;;;;;;;;;;;;;;;;5032566;28;20478;-65
2023/07/02 07:03:00;;;;;;;;;;;;;;;;;;5046725;28;19917;-68
2023/07/02 07:05:28;;;;;;;;;;;;;;;;;;5061593;28;19916;-71
2023/07/02 07:07:54;;;;;;;;;;;;;;;;;;5047589;28;19917;-67
2023/07/02 07:10:20;;;;;;;;;;;;;;;;;;5046666;28;19952;-69
2023/07/02 07:12:45;;;;;;;;;;;;;;;;;;5063916;28;20315;-68
2023/07/02 07:15:10;;;;;;;;;;;;;;;;;;5033234;28;21861;-68
2023/07/02 07:17:36;;;;;;;;;;;;;;;;;;5048187;28;19916;-69
2023/07/02 07:23:17;;;;;;;;;;;;;;;;;;5046879;28;22201;-68
2023/07/02 07:25:45;;;;;;;;;;;;;;;;;;5048784;28;19927;-69
2023/07/02 07:28:15;;;;;;;;;;;;;;;;;;5050183;28;20015;-70
2023/07/02 07:30:40;;;;;;;;;;;;;;;;;;5046921;28;19955;-66
2023/07/02 07:33:13;;;;;;;;;;;;;;;;;;5047120;28;19924;-69
2023/07/02 07:35:38;;;;;;;;;;;;;;;;;;5046749;28;19916;-67
2023/07/02 07:38:03;;;;;;;;;;;;;;;;;;5063845;28;19924;-69
2023/07/02 07:40:29;;;;;;;;;;;;;;;;;;5046121;28;19917;-68
2023/07/02 07:42:54;;;;;;;;;;;;;;;;;;5046593;28;19929;-68
2023/07/02 07:45:19;;;;;;;;;;;;;;;;;;5046029;28;19920;-66
2023/07/02 07:47:45;;;;;;;;;;;;;;;;;;5046961;28;21925;-70
2023/07/02 07:50:10;;;;;;;;;;;;;;;;;;5062463;28;20340;-69
2023/07/02 07:52:38;;;;;;;;;;;;;;;;;;5046287;28;20034;-70
2023/07/02 07:55:03;;;;;;;;;;;;;;;;;;5047891;28;20000;-66
2023/07/02 07:57:29;;;;;;;;;;;;;;;;;;5047468;28;19917;-67
2023/07/02 07:59:54;;;;;;;;;;;;;;;;;;5047626;28;19920;-69
2023/07/02 08:02:19;;;;;;;;;;;;;;;;;;5030715;28;20095;-68
2023/07/02 08:04:45;;;;;;;;;;;;;;;;;;5047717;28;19922;-65
2023/07/02 08:07:10;;;;;;;;;;;;;;;;;;5044798;28;19931;-67
2023/07/02 08:09:35;;;;;;;;;;;;;;;;;;5046751;28;19920;-68
2023/07/02 08:12:01;;;;;;;;;;;;;;;;;;5044959;28;21854;-70
2023/07/02 08:14:26;;;;;;;;;;;;;;;;;;5034201;28;19970;-65
2023/07/02 08:16:51;;;;;;;;;;;;;;;;;;5044420;28;19917;-66
2023/07/02 08:19:17;;;;;;;;;;;;;;;;;;5029803;28;19982;-67
2023/07/02 08:21:42;;;;;;;;;;;;;;;;;;5033556;28;20050;-64
2023/07/02 08:24:07;;;;;;;;;;;;;;;;;;5048504;28;19917;-68
2023/07/02 08:26:33;;;;;;;;;;;;;;;;;;5061617;28;19923;-72
2023/07/02 08:29:01;;;;;;;;;;;;;;;;;;5032916;28;19928;-69
2023/07/02 08:31:29;;;;;;;;;;;;;;;;;;5047798;28;19931;-69
2023/07/02 08:34:06;;;;;;;;;;;;;;;;;;5046995;28;19970;-70
2023/07/02 08:39:22;;;;;;;;;;;;;;;;;;5045236;28;19951;-70
2023/07/02 08:41:47;;;;;;;;;;;;;;;;;;5047001;28;20043;-70
2023/07/02 08:44:15;;;;;;;;;;;;;;;;;;5062318;28;20254;-68
2023/07/02 08:46:41;;;;;;;;;;;;;;;;;;5048261;28;19917;-71
2023/07/02 08:49:06;;;;;;;;;;;;;;;;;;5062068;28;19927;-67
2023/07/02 08:51:31;;;;;;;;;;;;;;;;;;5061311;28;19916;-67
2023/07/02 08:53:57;;;;;;;;;;;;;;;;;;5060910;28;19932;-70
2023/07/02 08:56:22;;;;;;;;;;;;;;;;;;5044793;28;20345;-67
2023/07/02 08:58:50;;;;;;;;;;;;;;;;;;5043734;28;19927;-67
2023/07/02 09:01:15;;;;;;;;;;;;;;;;;;5045176;28;19920;-69
2023/07/02 09:03:41;;;;;;;;;;;;;;;;;;5030380;28;19938;-70
2023/07/02 09:06:06;;;;;;;;;;;;;;;;;;5047366;28;20333;-66
2023/07/02 09:08:34;;;;;;;;;;;;;;;;;;5045082;28;19931;-67
2023/07/02 09:11:02;;;;;;;;;;;;;;;;;;5030692;28;19920;-69
2023/07/02 09:13:28;;;;;;;;;;;;;;;;;;5034164;28;19936;-66
2023/07/02 09:15:53;;;;;;;;;;;;;;;;;;5043495;28;19916;-67
2023/07/02 09:18:18;;;;;;;;;;;;;;;;;;5060063;28;20058;-67
2023/07/02 09:20:44;;;;;;;;;;;;;;;;;;5044619;28;20011;-69
2023/07/02 09:23:14;;;;;;;;;;;;;;;;;;5041305;28;19932;-71
2023/07/02 09:25:40;;;;;;;;;;;;;;;;;;5045270;28;19920;-73
2023/07/02 09:28:08;;;;;;;;;;;;;;;;;;5044921;28;20478;-68
2023/07/02 09:30:33;;;;;;;;;;;;;;;;;;5044408;28;19927;-67
2023/07/02 09:33:01;;;;;;;;;;;;;;;;;;5045021;28;19932;-68
2023/07/02 09:35:26;;;;;;;;;;;;;;;;;;5042589;28;19920;-70
2023/07/02 09:37:54;;;;;;;;;;;;;;;;;;5043338;28;19917;-68
2023/07/02 09:40:20;;;;;;;;;;;;;;;;;;5030758;28;19920;-66
2023/07/02 09:42:52;;;;;;;;;;;;;;;;;;5028928;28;19961;-68
2023/07/02 09:45:20;;;;;;;;;;;;;;;;;;5048408;28;19932;-67
2023/07/02 09:47:45;;;;;;;;;;;;;;;;;;5042148;28;19921;-68
2023/07/02 09:53:27;;;;;;;;;;;;;;;;;;5045495;28;20054;-68
2023/07/02 09:55:52;;;;;;;;;;;;;;;;;;5041889;28;20005;-65
2023/07/02 09:58:20;;;;;;;;;;;;;;;;;;5043735;28;19928;-65
2023/07/02 10:00:45;;;;;;;;;;;;;;;;;;5058703;28;20087;-66
2023/07/02 10:03:13;;;;;;;;;;;;;;;;;;5046446;28;19927;-67
2023/07/02 10:05:41;;;;;;;;;;;;;;;;;;5045923;28;19920;-65
2023/07/02 10:08:06;;;;;;;;;;;;;;;;;;5045003;28;19920;-67
2023/07/02 10:10:34;;;;;;;;;;;;;;;;;;5046904;28;19926;-67
2023/07/02 10:13:02;;;;;;;;;;;;;;;;;;5034773;28;19921;-68
2023/07/02 10:15:31;;;;;;;;;;;;;;;;;;5045428;28;20383;-67
2023/07/02 10:17:56;;;;;;;;;;;;;;;;;;5046007;28;19917;-68
2023/07/02 10:20:24;;;;;;;;;;;;;;;;;;5042196;28;19921;-69
2023/07/02 10:22:53;;;;;;;;;;;;;;;;;;5046370;28;19973;-68
2023/07/02 10:25:18;;;;;;;;;;;;;;;;;;5043874;28;21209;-66
2023/07/02 10:27:43;;;;;;;;;;;;;;;;;;5042083;28;20015;-69
2023/07/02 10:30:11;;;;;;;;;;;;;;;;;;5029772;28;19916;-68
2023/07/02 10:32:37;;;;;;;;;;;;;;;;;;5043363;28;19979;-66
2023/07/02 10:35:06;;;;;;;;;;;;;;;;;;5044385;28;19920;-69
2023/07/02 10:37:34;;;;;;;;;;;;;;;;;;5043916;28;19963;-66
2023/07/02 10:39:59;;;;;;;;;;;;;;;;;;5045351;28;19950;-64
2023/07/02 10:42:24;;;;;;;;;;;;;;;;;;5043634;28;19925;-70
2023/07/02 10:44:52;;;;;;;;;;;;;;;;;;5046467;28;19916;-69
2023/07/02 10:47:18;;;;;;;;;;;;;;;;;;5058344;28;19921;-67
2023/07/02 10:49:43;;;;;;;;;;;;;;;;;;5043770;28;20061;-65
2023/07/02 10:52:09;;;;;;;;;;;;;;;;;;5043800;28;19927;-65
2023/07/02 10:54:34;;;;;;;;;;;;;;;;;;5029118;28;19936;-67
2023/07/02 10:56:59;;;;;;;;;;;;;;;;;;5043571;28;20007;-66
2023/07/02 10:59:24;;;;;;;;;;;;;;;;;;5063628;28;20011;-64
2023/07/02 11:01:50;;;;;;;;;;;;;;;;;;5062937;28;20318;-63
2023/07/02 11:07:03;;;;;;;;;;;;;;;;;;5045299;28;20379;-64
2023/07/02 11:09:28;;;;;;;;;;;;;;;;;;5047078;28;19926;-64
2023/07/02 11:11:57;;;;;;;;;;;;;;;;;;5032668;28;19930;-67
2023/07/02 11:14:25;;;;;;;;;;;;;;;;;;5048390;28;19999;-64
2023/07/02 11:16:53;;;;;;;;;;;;;;;;;;5046891;28;19923;-67
2023/07/02 11:19:18;;;;;;;;;;;;;;;;;;5048068;28;19917;-66
2023/07/02 11:21:46;;;;;;;;;;;;;;;;;;5061684;28;19928;-68
2023/07/02 11:24:14;;;;;;;;;;;;;;;;;;5048910;28;19916;-66
2023/07/02 11:26:40;;;;;;;;;;;;;;;;;;5047239;28;19916;-67
2023/07/02 11:29:06;;;;;;;;;;;;;;;;;;5032866;28;21831;-65
2023/07/02 11:31:32;;;;;;;;;;;;;;;;;;5047408;28;19958;-66
2023/07/02 11:33:57;;;;;;;;;;;;;;;;;;5044667;28;19924;-65
2023/07/02 11:36:26;;;;;;;;;;;;;;;;;;5049626;28;20360;-64
2023/07/02 11:39:10;;;;;;;;;;;;;;;;;;5061543;28;19949;-67
2023/07/02 11:41:35;;;;;;;;;;;;;;;;;;5047630;28;19917;-68
2023/07/02 11:44:03;;;;;;;;;;;;;;;;;;5062414;28;19935;-67
2023/07/02 11:46:28;;;;;;;;;;;;;;;;;;5033010;28;20410;-67
2023/07/02 11:48:54;;;;;;;;;;;;;;;;;;5050542;28;19920;-64
2023/07/02 11:51:19;;;;;;;;;;;;;;;;;;5062999;28;19932;-66
2023/07/02 11:53:44;;;;;;;;;;;;;;;;;;5033731;28;19962;-64
2023/07/02 11:56:13;;;;;;;;;;;;;;;;;;5046762;28;19940;-65
2023/07/02 11:58:40;;;;;;;;;;;;;;;;;;5050027;28;19921;-66
2023/07/02 12:01:06;;;;;;;;;;;;;;;;;;5044353;28;20356;-65
2023/07/02 12:03:31;;;;;;;;;;;;;;;;;;5044236;28;19998;-65
2023/07/02 12:05:59;;;;;;;;;;;;;;;;;;5062523;28;19927;-64
2023/07/02 12:08:27;;;;;;;;;;;;;;;;;;5049276;28;19920;-67
2023/07/02 12:10:52;;;;;;;;;;;;;;;;;;5045448;28;20020;-65
2023/07/02 12:13:17;;;;;;;;;;;;;;;;;;5032350;28;20299;-65
2023/07/02 12:15:47;;;;;;;;;;;;;;;;;;5061296;28;19921;-64
2023/07/02 12:18:17;;;;;;;;;;;;;;;;;;5034935;28;19962;-69
2023/07/02 12:20:42;;;;;;;;;;;;;;;;;;5043768;28;19927;-67
2023/07/02 12:23:11;;;;;;;;;;;;;;;;;;5043882;28;19921;-68
2023/07/02 12:25:36;;;;;;;;;;;;;;;;;;5031810;28;19921;-68
2023/07/02 12:28:17;;;;;;;;;;;;;;;;;;5031973;28;21887;-66
2023/07/02 12:30:42;;;;;;;;;;;;;;;;;;5044296;28;19927;-64
2023/07/02 12:33:07;;;;;;;;;;;;;;;;;;5044098;28;19924;-66
2023/07/02 12:35:33;;;;;;;;;;;;;;;;;;5045121;28;19921;-67
2023/07/02 12:37:58;;;;;;;;;;;;;;;;;;5049130;28;19916;-69
2023/07/02 12:40:23;;;;;;;;;;;;;;;;;;5045499;28;19924;-63
2023/07/02 12:46:08;;;;;;;;;;;;;;;;;;5046256;28;19930;-67
2023/07/02 12:48:34;;;;;;;;;;;;;;;;;;5055816;28;19920;-65
2023/07/02 12:54:18;;;;;;;;;;;;;;;;;;5043607;28;20362;-66
2023/07/02 12:56:43;;;;;;;;;;;;;;;;;;5044569;28;19917;-66
2023/07/02 12:59:11;;;;;;;;;;;;;;;;;;5045881;28;19921;-67
2023/07/02 13:01:36;;;;;;;;;;;;;;;;;;5044175;28;19927;-67
2023/07/02 13:04:05;;;;;;;;;;;;;;;;;;5044628;28;19920;-68
2023/07/02 13:09:47;;;;;;;;;;;;;;;;;;5047344;28;19966;-68
2023/07/02 13:12:12;;;;;;;;;;;;;;;;;;5028953;28;21726;-67
2023/07/02 13:14:37;;;;;;;;;;;;;;;;;;5042659;28;20397;-69
2023/07/02 13:17:05;;;;;;;;;;;;;;;;;;5043676;28;19923;-68
2023/07/02 13:19:33;;;;;;;;;;;;;;;;;;5046901;28;19916;-67
2023/07/02 13:22:00;;;;;;;;;;;;;;;;;;5046845;28;19932;-66
2023/07/02 13:24:31;;;;;;;;;;;;;;;;;;5032463;28;19927;-67
2023/07/02 13:26:58;;;;;;;;;;;;;;;;;;5044935;28;20517;-66
2023/07/02 13:29:26;;;;;;;;;;;;;;;;;;5045436;28;20001;-65
2023/07/02 13:34:56;;;;;;;;;;;;;;;;;;5128884;23;19991;-91
2023/07/02 13:37:24;;;;;;;;;;;;;;;;;;5014860;28;19928;-89
2023/07/02 13:39:50;;;;;;;;;;;;;;;;;;5028879;28;19916;-89
2023/07/02 13:42:16;;;;;;;;;;;;;;;;;;5013601;28;20255;-86
2023/07/02 13:44:42;;;;;;;;;;;;;;;;;;5029854;28;19924;-89
2023/07/02 13:47:08;;;;;;;;;;;;;;;;;;5015346;28;20278;-92
2023/07/02 13:49:34;;;;;;;;;;;;;;;;;;5027894;28;19913;-92
2023/07/02 13:52:01;;;;;;;;;;;;;;;;;;5014837;28;20272;-92
2023/07/02 13:54:31;;;;;;;;;;;;;;;;;;5025975;28;19913;-90
2023/07/02 13:56:57;;;;;;;;;;;;;;;;;;5011620;28;19925;-91
2023/07/02 13:59:23;;;;;;;;;;;;;;;;;;5020705;28;20224;-89
2023/07/02 14:01:51;;;;;;;;;;;;;;;;;;5017315;28;19924;-93
2023/07/02 14:04:22;;;;;;;;;;;;;;;;;;5025892;28;19928;-88
2023/07/02 14:06:47;;;;;;;;;;;;;;;;;;5011646;28;20571;-89
2023/07/02 14:09:19;;;;;;;;;;;;;;;;;;5029468;28;19913;-89
2023/07/02 14:11:47;;;;;;;;;;;;;;;;;;5014478;28;20243;-92
2023/07/02 14:14:16;;;;;;;;;;;;;;;;;;5018696;28;19925;-88
2023/07/02 14:16:44;;;;;;;;;;;;;;;;;;5017013;28;19917;-92
2023/07/02 14:19:12;;;;;;;;;;;;;;;;;;5010611;28;20414;-92
2023/07/02 14:21:37;;;;;;;;;;;;;;;;;;5022635;28;19953;-88
2023/07/02 14:24:03;;;;;;;;;;;;;;;;;;5024902;28;19928;-89
2023/07/02 14:26:31;;;;;;;;;;;;;;;;;;5022419;28;19967;-90
2023/07/02 14:28:58;;;;;;;;;;;;;;;;;;5016320;28;19969;-91
2023/07/02 14:31:25;;;;;;;;;;;;;;;;;;5031111;28;19954;-91
2023/07/02 14:33:51;;;;;;;;;;;;;;;;;;5034058;28;20007;-90
2023/07/02 14:36:16;;;;;;;;;;;;;;;;;;5018926;28;19921;-90
2023/07/02 14:38:43;;;;;;;;;;;;;;;;;;5030631;28;19921;-88
2023/07/02 14:41:08;;;;;;;;;;;;;;;;;;5048839;28;20192;-90
2023/07/02 14:43:37;;;;;;;;;;;;;;;;;;5020669;28;19979;-91
2023/07/02 14:46:07;;;;;;;;;;;;;;;;;;5027847;28;19936;-91
2023/07/02 14:49:25;;;;;;;;;;;;;;;;;;5034460;28;19928;-89
2023/07/02 14:52:00;;;;;;;;;;;;;;;;;;5018560;28;19928;-91
2023/07/02 14:54:33;;;;;;;;;;;;;;;;;;5017751;28;20004;-89
2023/07/02 14:56:59;;;;;;;;;;;;;;;;;;5060993;28;19901;-90
2023/07/02 14:59:26;;;;;;;;;;;;;;;;;;5043340;28;19921;-88
2023/07/02 15:01:55;;;;;;;;;;;;;;;;;;5033657;28;19936;-90
2023/07/02 15:04:38;;;;;;;;;;;;;;;;;;5031247;28;19924;-91
2023/07/02 15:07:06;;;;;;;;;;;;;;;;;;5017195;28;19991;-92
2023/07/02 15:09:35;;;;;;;;;;;;;;;;;;5019888;28;20277;-93
2023/07/02 15:12:00;;;;;;;;;;;;;;;;;;5016175;28;19940;-91
2023/07/02 15:14:26;;;;;;;;;;;;;;;;;;5018541;28;19917;-93
2023/07/02 15:16:57;;;;;;;;;;;;;;;;;;5016796;28;20011;-91
2023/07/02 15:19:24;;;;;;;;;;;;;;;;;;5014474;28;19913;-90
2023/07/02 15:21:49;;;;;;;;;;;;;;;;;;5044470;28;19940;-89
2023/07/02 15:24:15;;;;;;;;;;;;;;;;;;5016979;28;19964;-90
2023/07/02 15:26:42;;;;;;;;;;;;;;;;;;5018755;28;19988;-90
2023/07/02 15:29:08;;;;;;;;;;;;;;;;;;5018451;28;19917;-92
2023/07/02 15:31:40;;;;;;;;;;;;;;;;;;5015134;28;20347;-93
2023/07/02 15:34:06;;;;;;;;;;;;;;;;;;5040943;28;19925;-92
2023/07/02 15:36:35;;;;;;;;;;;;;;;;;;5042456;28;20439;-92
2023/07/02 15:39:06;;;;;;;;;;;;;;;;;;5017051;28;19921;-92
2023/07/02 15:41:33;;;;;;;;;;;;;;;;;;5031722;28;20200;-92
2023/07/02 15:44:03;;;;;;;;;;;;;;;;;;5028692;28;19971;-93
2023/07/02 15:46:41;;;;;;;;;;;;;;;;;;5038882;28;19917;-92
2023/07/02 15:49:09;;;;;;;;;;;;;;;;;;5037274;28;19933;-93
2023/07/02 15:51:39;;;;;;;;;;;;;;;;;;5017060;28;19932;-89
2023/07/02 15:54:06;;;;;;;;;;;;;;;;;;5017619;28;19921;-92
2023/07/02 15:56:41;;;;;;;;;;;;;;;;;;5017737;28;19913;-90
2023/07/02 15:59:12;;;;;;;;;;;;;;;;;;5031557;28;20007;-90
2023/07/02 16:01:39;;;;;;;;;;;;;;;;;;5031325;28;20542;-89
2023/07/02 16:04:08;;;;;;;;;;;;;;;;;;5016709;28;19937;-92
2023/07/02 16:06:34;;;;;;;;;;;;;;;;;;5041665;28;19913;-90
2023/07/02 16:09:15;;;;;;;;;;;;;;;;;;;;;
2023/07/02 16:11:43;;;;;;;;;;;;;;;;;;5029555;28;20338;-90
2023/07/02 16:14:22;;;;;;;;;;;;;;;;;;5028389;28;19917;-91
2023/07/02 16:16:56;;;;;;;;;;;;;;;;;;5030052;28;19921;-88
2023/07/02 16:19:27;;;;;;;;;;;;;;;;;;5032640;28;19928;-87
2023/07/02 16:21:53;;;;;;;;;;;;;;;;;;5027974;28;19924;-90
2023/07/02 16:24:20;;;;;;;;;;;;;;;;;;5024748;28;19975;-91
2023/07/02 16:26:46;;;;;;;;;;;;;;;;;;5016299;28;19913;-90
2023/07/02 16:29:12;;;;;;;;;;;;;;;;;;5030432;28;20309;-89
2023/07/02 16:31:37;;;;;;;;;;;;;;;;;;5015743;28;19917;-89
2023/07/02 16:34:04;;;;;;;;;;;;;;;;;;5016950;28;19932;-89
2023/07/02 16:36:30;;;;;;;;;;;;;;;;;;5030760;28;19921;-90
2023/07/02 16:38:58;;;;;;;;;;;;;;;;;;5012668;28;19913;-89
2023/07/02 16:41:25;;;;;;;;;;;;;;;;;;5028822;28;20066;-91
2023/07/02 16:43:59;;;;;;;;;;;;;;;;;;5030932;28;20492;-90
2023/07/02 16:46:25;;;;;;;;;;;;;;;;;;5042156;28;19921;-91
2023/07/02 16:48:53;;;;;;;;;;;;;;;;;;5016821;28;19977;-90
2023/07/02 16:51:20;;;;;;;;;;;;;;;;;;5022532;28;19917;-89
2023/07/02 16:53:46;;;;;;;;;;;;;;;;;;5033991;28;19975;-91
2023/07/02 16:56:18;;;;;;;;;;;;;;;;;;5013790;28;19921;-90
2023/07/02 16:58:49;;;;;;;;;;;;;;;;;;5030730;28;20373;-91
2023/07/02 17:01:14;;;;;;;;;;;;;;;;;;5046071;28;19940;-89
2023/07/02 17:03:40;;;;;;;;;;;;;;;;;;5015010;28;20357;-92
2023/07/02 17:06:05;;;;;;;;;;;;;;;;;;5026779;28;20166;-89
2023/07/02 17:08:31;;;;;;;;;;;;;;;;;;5046098;28;19945;-90
2023/07/02 17:10:56;;;;;;;;;;;;;;;;;;5030618;28;19916;-88
2023/07/02 17:13:34;;;;;;;;;;;;;;;;;;5040096;28;20346;-92
2023/07/02 17:16:00;;;;;;;;;;;;;;;;;;5017889;28;19913;-87
2023/07/02 17:18:32;;;;;;;;;;;;;;;;;;5042633;28;19901;-89
2023/07/02 17:20:57;;;;;;;;;;;;;;;;;;5034317;28;19917;-88
2023/07/02 17:23:26;;;;;;;;;;;;;;;;;;5033592;28;19963;-89
2023/07/02 17:25:54;;;;;;;;;;;;;;;;;;5032613;28;19922;-90
2023/07/02 17:28:23;;;;;;;;;;;;;;;;;;5046507;28;19928;-87
2023/07/02 17:30:52;;;;;;;;;;;;;;;;;;5050473;28;20421;-89